createdAt,value
2023-03-29T00:02:20.208Z,44.44
2023-03-29T00:05:35.282Z,43.49
2023-03-29T00:08:37.321Z,44.32
2023-03-29T00:11:52.379Z,44.34
2023-03-29T00:14:54.313Z,45.18
2023-03-29T00:18:09.239Z,45.93
2023-03-29T00:21:18.482Z,45.88
2023-03-29T00:24:26.641Z,46.98
2023-03-29T00:27:35.162Z,47.13
2023-03-29T00:30:44.258Z,47.33
2023-03-29T00:33:53.157Z,47.62
2023-03-29T00:37:03.304Z,48.67
2023-03-29T00:40:13.168Z,48.59
2023-03-29T00:43:21.760Z,48.90
2023-03-29T00:46:37.768Z,49.74
2023-03-29T00:49:39.963Z,49.61
2023-03-29T00:53:01.479Z,50.31
2023-03-29T00:56:20.152Z,50.56
2023-03-29T00:59:31.389Z,50.77
2023-03-29T01:02:40.500Z,51.65
2023-03-29T01:06:00.174Z,51.98
2023-03-29T01:09:05.677Z,52.51
2023-03-29T01:12:26.227Z,52.17
2023-03-29T01:15:29.219Z,52.34
2023-03-29T01:18:44.228Z,52.47
2023-03-29T01:21:59.223Z,53.01
2023-03-29T01:25:44.218Z,52.39
2023-03-29T01:29:06.542Z,52.33
2023-03-29T01:32:20.929Z,52.73
2023-03-29T01:35:39.272Z,52.70
2023-03-29T01:39:04.182Z,52.25
2023-03-29T01:42:29.225Z,52.49
2023-03-29T01:45:57.968Z,53.26
2023-03-29T01:49:13.212Z,53.73
2023-03-29T01:52:36.205Z,53.42
2023-03-29T01:55:52.565Z,53.69
2023-03-29T01:59:11.230Z,53.73
2023-03-29T02:02:23.303Z,53.85
2023-03-29T02:05:37.192Z,53.70
2023-03-29T02:08:53.278Z,54.21
2023-03-29T02:11:59.561Z,54.38
2023-03-29T02:15:20.465Z,54.44
2023-03-29T02:18:22.681Z,54.06
2023-03-29T02:21:47.223Z,53.87
2023-03-29T02:24:54.278Z,54.95
2023-03-29T02:28:11.292Z,53.85
2023-03-29T02:31:20.550Z,54.27
2023-03-29T02:34:42.970Z,53.53
2023-03-29T02:37:55.747Z,53.86
2023-03-29T02:41:05.321Z,54.03
2023-03-29T02:44:18.643Z,54.25
2023-03-29T02:47:34.270Z,54.43
2023-03-29T02:50:56.287Z,54.98
2023-03-29T02:54:06.149Z,55.30
2023-03-29T02:57:29.193Z,54.91
2023-03-29T03:00:30.818Z,54.84
2023-03-29T03:03:45.383Z,55.27
2023-03-29T03:06:47.677Z,55.93
2023-03-29T03:10:02.506Z,55.98
2023-03-29T03:13:10.315Z,55.52
2023-03-29T03:16:25.328Z,55.92
2023-03-29T03:19:27.696Z,55.91
2023-03-29T03:22:43.681Z,56.39
2023-03-29T03:25:45.598Z,56.29
2023-03-29T03:29:01.753Z,56.83
2023-03-29T03:32:16.249Z,56.01
2023-03-29T03:35:24.259Z,55.78
2023-03-29T03:38:40.254Z,56.75
2023-03-29T03:41:50.266Z,56.38
2023-03-29T03:44:58.897Z,56.03
2023-03-29T03:48:07.491Z,55.93
2023-03-29T03:51:15.860Z,55.32
2023-03-29T03:54:27.283Z,55.26
2023-03-29T03:57:49.239Z,55.53
2023-03-29T04:00:58.273Z,54.91
2023-03-29T04:04:13.338Z,54.89
2023-03-29T04:07:24.662Z,54.07
2023-03-29T04:10:33.288Z,54.77
2023-03-29T04:14:07.278Z,54.59
2023-03-29T04:17:15.334Z,55.04
2023-03-29T04:20:30.293Z,55.69
2023-03-29T04:23:32.277Z,56.01
2023-03-29T04:26:47.267Z,54.99
2023-03-29T04:29:51.437Z,55.08
2023-03-29T04:33:06.350Z,54.50
2023-03-29T04:36:15.292Z,54.97
2023-03-29T04:42:47.277Z,53.28
2023-03-29T04:46:02.304Z,53.62
2023-03-29T04:49:11.564Z,53.36
2023-03-29T04:52:27.253Z,53.94
2023-03-29T04:55:35.283Z,54.10
2023-03-29T04:58:57.308Z,53.43
2023-03-29T05:02:12.275Z,53.23
2023-03-29T05:05:20.249Z,53.66
2023-03-29T05:11:58.733Z,52.74
2023-03-29T05:15:14.250Z,52.18
2023-03-29T05:18:31.250Z,52.39
2023-03-29T05:21:46.388Z,52.37
2023-03-29T05:24:48.083Z,52.07
2023-03-29T05:28:02.545Z,52.00
2023-03-29T05:31:17.389Z,50.67
2023-03-29T05:34:22.098Z,51.56
2023-03-29T05:37:36.820Z,51.92
2023-03-29T05:40:40.009Z,50.58
2023-03-29T05:43:55.077Z,50.63
2023-03-29T05:47:03.320Z,50.76
2023-03-29T05:50:12.417Z,50.63
2023-03-29T05:53:21.337Z,49.95
2023-03-29T05:56:43.372Z,49.42
2023-03-29T05:59:51.277Z,50.06
2023-03-29T06:03:18.001Z,49.40
2023-03-29T06:06:22.774Z,49.79
2023-03-29T06:09:37.312Z,50.12
2023-03-29T06:12:46.310Z,50.06
2023-03-29T06:16:01.343Z,49.54
2023-03-29T06:19:16.306Z,49.96
2023-03-29T06:22:24.303Z,48.98
2023-03-29T06:25:50.392Z,49.09
2023-03-29T06:28:52.477Z,49.06
2023-03-29T06:32:07.304Z,48.68
2023-03-29T06:35:16.844Z,47.79
2023-03-29T06:38:25.836Z,47.41
2023-03-29T06:41:41.620Z,48.07
2023-03-29T06:44:43.341Z,47.32
2023-03-29T06:47:58.377Z,46.50
2023-03-29T06:51:00.669Z,46.85
2023-03-29T06:54:19.356Z,46.68
2023-03-29T06:57:27.681Z,46.24
2023-03-29T07:03:59.064Z,44.83
2023-03-29T07:07:15.367Z,46.21
2023-03-29T07:10:30.271Z,42.05
2023-03-29T07:13:41.534Z,38.62
2023-03-29T07:16:55.995Z,37.58
2023-03-29T07:20:20.667Z,37.07
2023-03-29T07:23:32.836Z,36.40
2023-03-29T07:27:00.275Z,42.03
2023-03-29T07:30:23.095Z,36.82
2023-03-29T07:33:28.285Z,37.47
2023-03-29T07:36:45.363Z,37.29
2023-03-29T07:39:47.037Z,35.83
2023-03-29T07:43:18.349Z,35.29
2023-03-29T07:46:20.185Z,35.49
2023-03-29T07:49:38.324Z,35.79
2023-03-29T07:52:47.366Z,35.53
2023-03-29T07:56:02.434Z,35.18
2023-03-29T07:59:17.468Z,34.22
2023-03-29T08:05:48.378Z,33.23
2023-03-29T08:09:16.561Z,35.73
2023-03-29T08:12:29.279Z,38.47
2023-03-29T08:15:45.396Z,39.28
2023-03-29T08:18:47.113Z,39.03
2023-03-29T08:22:03.526Z,39.15
2023-03-29T08:25:14.801Z,37.93
2023-03-29T08:28:22.952Z,38.68
2023-03-29T08:31:31.399Z,39.38
2023-03-29T08:34:47.448Z,34.94
2023-03-29T08:37:49.148Z,32.58
2023-03-29T08:41:03.738Z,32.31
2023-03-29T08:44:28.577Z,32.42
2023-03-29T08:48:00.620Z,32.91
2023-03-29T08:51:15.998Z,33.55
2023-03-29T08:54:49.790Z,37.67
2023-03-29T08:58:12.605Z,33.55
2023-03-29T09:01:29.382Z,33.09
2023-03-29T09:04:47.428Z,33.10
2023-03-29T09:07:49.784Z,33.49
2023-03-29T09:11:21.376Z,32.68
2023-03-29T09:14:47.780Z,33.09
2023-03-29T09:18:14.412Z,32.63
2023-03-29T09:21:43.710Z,32.60
2023-03-29T09:25:03.448Z,33.65
2023-03-29T09:28:42.892Z,33.49
2023-03-29T09:32:02.669Z,34.82
2023-03-29T09:35:26.388Z,33.34
2023-03-29T09:38:37.440Z,33.02
2023-03-29T09:45:26.357Z,33.95
2023-03-29T09:48:46.407Z,29.79
2023-03-29T09:51:50.119Z,30.43
2023-03-29T09:55:10.397Z,30.92
2023-03-29T09:58:34.419Z,31.22
2023-03-29T10:01:38.622Z,31.12
2023-03-29T10:04:59.419Z,31.31
2023-03-29T10:08:22.030Z,31.72
2023-03-29T10:11:44.149Z,30.89
2023-03-29T10:14:56.097Z,34.03
2023-03-29T10:18:12.464Z,30.24
2023-03-29T10:21:28.418Z,35.33
2023-03-29T10:28:11.421Z,30.68
2023-03-29T10:31:28.826Z,30.97
2023-03-29T10:34:37.171Z,31.46
2023-03-29T10:37:52.653Z,31.21
2023-03-29T10:41:19.550Z,30.99
2023-03-29T10:44:32.801Z,31.49
2023-03-29T10:47:51.481Z,32.05
2023-03-29T10:50:59.804Z,31.37
2023-03-29T10:54:23.380Z,31.16
2023-03-29T11:02:33.246Z,30.14
2023-03-29T11:06:12.052Z,30.14
2023-03-29T11:09:53.045Z,30.50
2023-03-29T11:13:24.036Z,30.42
2023-03-29T11:17:04.133Z,30.51
2023-03-29T11:20:47.724Z,30.04
2023-03-29T11:24:25.654Z,23.86
2023-03-29T11:27:49.335Z,19.85
2023-03-29T11:31:32.070Z,18.88
2023-03-29T11:35:11.165Z,19.34
2023-03-29T11:38:29.915Z,18.22
2023-03-29T11:41:42.299Z,16.81
2023-03-29T11:45:01.366Z,17.33
2023-03-29T11:48:23.382Z,18.59
2023-03-29T11:51:44.082Z,15.54
2023-03-29T11:55:00.635Z,14.43
2023-03-29T11:58:26.233Z,18.57
2023-03-29T12:01:46.106Z,17.52
2023-03-29T12:05:06.132Z,16.74
2023-03-29T12:08:21.094Z,16.65
2023-03-29T12:11:38.028Z,15.03
2023-03-29T12:14:59.061Z,16.43
2023-03-29T12:18:39.636Z,15.83
2023-03-29T12:21:53.072Z,16.19
2023-03-29T12:25:11.503Z,17.02
2023-03-29T12:28:36.087Z,18.16
2023-03-29T12:32:27.129Z,20.30
2023-03-29T12:36:13.234Z,20.64
2023-03-29T12:39:17.732Z,22.31
2023-03-29T12:42:53.077Z,23.04
2023-03-29T12:46:02.015Z,25.25
2023-03-29T12:49:34.199Z,26.93
2023-03-29T12:52:43.107Z,27.34
2023-03-29T12:56:08.469Z,28.70
2023-03-29T12:59:49.173Z,29.91
2023-03-29T13:03:40.563Z,29.32
2023-03-29T13:06:56.645Z,29.75
2023-03-29T13:10:16.265Z,30.54
2023-03-29T13:13:36.873Z,30.57
2023-03-29T13:20:50.745Z,31.09
2023-03-29T13:24:24.174Z,31.90
2023-03-29T13:28:04.835Z,32.30
2023-03-29T13:31:55.134Z,32.57
2023-03-29T13:35:28.344Z,32.87
2023-03-29T13:38:38.100Z,33.55
2023-03-29T13:42:19.334Z,34.18
2023-03-29T13:45:33.327Z,33.28
2023-03-29T13:52:43.378Z,33.47
2023-03-29T13:55:53.862Z,33.97
2023-03-29T13:59:13.998Z,32.89
2023-03-29T14:02:54.176Z,32.91
2023-03-29T14:06:14.602Z,32.57
2023-03-29T14:09:31.557Z,33.41
2023-03-29T14:12:44.299Z,33.65
2023-03-29T14:16:05.415Z,33.54
2023-03-29T14:19:20.358Z,33.36
2023-03-29T14:22:41.668Z,33.45
2023-03-29T14:25:43.521Z,34.65
2023-03-29T14:29:02.438Z,33.63
2023-03-29T14:32:20.173Z,32.97
2023-03-29T14:35:32.329Z,32.75
2023-03-29T14:38:47.721Z,33.38
2023-03-29T14:41:53.637Z,33.54
2023-03-29T14:45:12.157Z,34.00
2023-03-29T14:48:21.249Z,34.90
2023-03-29T14:51:36.144Z,35.95
2023-03-29T14:54:55.129Z,35.79
2023-03-29T14:57:59.904Z,35.56
2023-03-29T15:01:24.618Z,35.80
2023-03-29T15:04:34.972Z,35.95
2023-03-29T15:07:50.150Z,35.82
2023-03-29T15:11:00.199Z,36.37
2023-03-29T15:14:38.420Z,35.80
2023-03-29T15:17:52.275Z,36.18
2023-03-29T15:21:08.185Z,36.35
2023-03-29T15:24:29.782Z,36.74
2023-03-29T15:27:47.184Z,36.79
2023-03-29T15:31:07.372Z,36.45
2023-03-29T15:34:30.477Z,36.69
2023-03-29T15:37:45.146Z,37.21
2023-03-29T15:40:47.903Z,37.49
2023-03-29T15:44:05.206Z,37.02
2023-03-29T15:47:10.456Z,37.15
2023-03-29T15:50:25.171Z,37.12
2023-03-29T15:53:26.942Z,37.06
2023-03-29T15:56:46.210Z,37.73
2023-03-29T15:59:47.949Z,37.29
2023-03-29T16:03:09.292Z,37.28
2023-03-29T16:06:20.177Z,37.15
2023-03-29T16:09:28.850Z,37.29
2023-03-29T16:12:37.186Z,37.05
2023-03-29T16:15:46.240Z,37.36
2023-03-29T16:18:55.194Z,38.66
2023-03-29T16:22:10.209Z,38.88
2023-03-29T16:25:21.267Z,39.45
2023-03-29T16:28:29.677Z,39.13
2023-03-29T16:31:38.244Z,38.96
2023-03-29T16:34:53.234Z,39.51
2023-03-29T16:37:55.211Z,40.40
2023-03-29T16:41:13.519Z,40.05
2023-03-29T16:44:23.752Z,40.00
2023-03-29T16:47:33.222Z,40.72
2023-03-29T16:50:42.085Z,41.28
2023-03-29T16:53:51.306Z,41.50
2023-03-29T16:57:06.932Z,41.41
2023-03-29T17:00:18.129Z,41.35
2023-03-29T17:03:33.190Z,41.53
2023-03-29T17:06:41.814Z,41.34
2023-03-29T17:09:50.206Z,41.32
2023-03-29T17:12:59.549Z,41.22
2023-03-29T17:16:08.248Z,40.83
2023-03-29T17:19:16.761Z,41.47
2023-03-29T17:22:25.233Z,42.16
2023-03-29T17:25:40.254Z,43.03
2023-03-29T17:28:55.943Z,43.76
2023-03-29T17:32:06.258Z,44.44
2023-03-29T17:35:14.897Z,45.21
2023-03-29T17:38:23.276Z,45.05
2023-03-29T17:41:38.238Z,45.74
2023-03-29T17:44:53.265Z,46.17
2023-03-29T17:47:54.922Z,46.56
2023-03-29T17:51:09.233Z,47.20
2023-03-29T17:54:11.042Z,47.66
2023-03-29T17:57:25.355Z,48.42
2023-03-29T18:00:33.869Z,48.58
2023-03-29T18:03:56.254Z,48.53
2023-03-29T18:07:04.698Z,48.57
2023-03-29T18:10:14.595Z,49.12
2023-03-29T18:13:29.242Z,49.31
2023-03-29T18:16:31.133Z,49.28
2023-03-29T18:19:46.196Z,49.56
2023-03-29T18:22:48.290Z,49.63
2023-03-29T18:26:07.291Z,49.76
2023-03-29T18:29:15.263Z,49.76
2023-03-29T18:32:24.538Z,50.11
2023-03-29T18:35:32.257Z,50.12
2023-03-29T18:38:41.493Z,50.35
2023-03-29T18:41:49.658Z,50.46
2023-03-29T18:45:04.288Z,50.60
2023-03-29T18:48:12.934Z,51.05
2023-03-29T18:51:21.326Z,51.16
2023-03-29T18:54:29.737Z,50.89
2023-03-29T18:57:38.245Z,51.65
2023-03-29T19:01:01.010Z,51.72
2023-03-29T19:04:15.258Z,51.88
2023-03-29T19:07:23.793Z,51.84
2023-03-29T19:10:32.328Z,52.06
2023-03-29T19:13:44.769Z,52.20
2023-03-29T19:16:53.353Z,52.06
2023-03-29T19:20:01.862Z,52.60
2023-03-29T19:23:11.294Z,52.73
2023-03-29T19:26:20.070Z,52.77
2023-03-29T19:29:29.349Z,53.05
2023-03-29T19:32:44.281Z,53.39
2023-03-29T19:35:46.611Z,53.65
2023-03-29T19:39:01.287Z,53.85
2023-03-29T19:42:03.057Z,54.42
2023-03-29T19:45:18.412Z,54.64
2023-03-29T19:48:22.961Z,54.62
2023-03-29T19:51:38.241Z,54.65
2023-03-29T19:54:46.517Z,54.38
2023-03-29T19:58:01.255Z,54.28
2023-03-29T20:01:16.291Z,54.46
2023-03-29T20:04:31.271Z,54.24
2023-03-29T20:07:39.778Z,54.55
2023-03-29T20:10:48.286Z,54.98
2023-03-29T20:13:57.369Z,55.18
2023-03-29T20:17:19.047Z,55.02
2023-03-29T20:20:27.432Z,55.08
2023-03-29T20:23:35.319Z,54.87
2023-03-29T20:26:50.293Z,54.68
2023-03-29T20:29:52.018Z,54.79
2023-03-29T20:33:06.561Z,54.25
2023-03-29T20:36:08.432Z,54.36
2023-03-29T20:39:25.581Z,54.64
2023-03-29T20:42:27.492Z,55.13
2023-03-29T20:45:52.119Z,54.46
2023-03-29T20:49:09.170Z,54.79
2023-03-29T20:52:24.310Z,55.15
2023-03-29T20:55:30.537Z,56.44
2023-03-29T20:58:45.594Z,57.20
2023-03-29T21:01:54.367Z,57.38
2023-03-29T21:05:16.322Z,57.30
2023-03-29T21:08:24.332Z,57.39
2023-03-29T21:11:32.877Z,57.88
2023-03-29T21:14:47.340Z,58.02
2023-03-29T21:17:56.334Z,58.68
2023-03-29T21:21:13.410Z,57.65
2023-03-29T21:24:21.310Z,58.02
2023-03-29T21:27:36.447Z,57.93
2023-03-29T21:30:38.101Z,57.98
2023-03-29T21:33:52.321Z,58.23
2023-03-29T21:36:54.337Z,57.94
2023-03-29T21:40:11.335Z,58.06
2023-03-29T21:43:20.002Z,58.21
2023-03-29T21:46:28.346Z,58.38
2023-03-29T21:49:38.017Z,58.18
2023-03-29T21:52:46.410Z,58.04
2023-03-29T21:56:01.343Z,57.26
2023-03-29T21:59:16.734Z,57.33
2023-03-29T22:02:38.495Z,57.37
2023-03-29T22:06:05.339Z,57.12
2023-03-29T22:09:13.624Z,57.68
2023-03-29T22:12:22.371Z,57.94
2023-03-29T22:15:30.423Z,58.19
2023-03-29T22:18:46.402Z,58.28
2023-03-29T22:21:55.344Z,58.71
2023-03-29T22:25:10.661Z,59.30
2023-03-29T22:28:12.319Z,59.28
2023-03-29T22:31:29.431Z,59.25
2023-03-29T22:34:31.707Z,59.33
2023-03-29T22:37:49.366Z,60.31
2023-03-29T22:40:57.330Z,60.21
2023-03-29T22:44:05.893Z,60.33
2023-03-29T22:47:14.349Z,60.07
2023-03-29T22:50:30.655Z,60.60
2023-03-29T22:53:33.314Z,60.21
2023-03-29T22:56:48.478Z,60.53
2023-03-29T22:59:50.151Z,60.68
2023-03-29T23:03:11.389Z,61.14
2023-03-29T23:06:20.378Z,61.14
2023-03-29T23:09:36.361Z,61.33
2023-03-29T23:12:51.398Z,61.80
2023-03-29T23:16:01.027Z,62.36
2023-03-29T23:19:09.396Z,62.44
2023-03-29T23:22:25.403Z,61.92
2023-03-29T23:25:27.634Z,61.74
2023-03-29T23:28:42.466Z,61.36
2023-03-29T23:31:47.445Z,61.96
2023-03-29T23:35:02.367Z,61.71
2023-03-29T23:38:11.629Z,61.59
2023-03-29T23:41:19.876Z,62.09
2023-03-29T23:44:28.370Z,61.89
2023-03-29T23:47:38.180Z,61.84
2023-03-29T23:50:46.359Z,62.12
2023-03-29T23:53:55.839Z,61.90
2023-03-29T23:57:10.438Z,61.26
